Time;durP1;ratioP1;P1;durP2;ratioP2;P2;SDS_P1;SDS_P2;PMS_P1;PMS_P2;Temp;Humidity;BMP_temperature;BMP_pressure;BME280_temperature;BME280_humidity;BME280_pressure;Samples;Min_cycle;Max_cycle;Signal;HPM_P1;HPM_P2
2023/02/11 00:01:20;;;;;;;51.15;27.45;;;;;;;;;;5051068;28;20209;-66
2023/02/11 00:03:49;;;;;;;44.67;30.35;;;;;;;;;;5052032;28;20209;-67
2023/02/11 00:06:16;;;;;;;37.78;23.70;;;;;;;;;;5052373;28;20225;-66
2023/02/11 00:08:43;;;;;;;52.78;31.83;;;;;;;;;;5049401;28;20190;-66
2023/02/11 00:11:13;;;;;;;49.67;29.10;;;;;;;;;;5032516;28;20197;-66
2023/02/11 00:13:40;;;;;;;39.78;25.38;;;;;;;;;;5032831;28;20194;-66
2023/02/11 00:16:08;;;;;;;44.75;26.83;;;;;;;;;;5032759;28;20192;-66
2023/02/11 00:18:36;;;;;;;51.53;29.65;;;;;;;;;;5038316;28;20277;-66
2023/02/11 00:21:08;;;;;;;52.05;30.85;;;;;;;;;;5052284;28;20202;-66
2023/02/11 00:23:35;;;;;;;46.72;29.80;;;;;;;;;;5052758;28;20331;-66
2023/02/11 00:26:02;;;;;;;46.10;28.90;;;;;;;;;;5052140;28;20217;-66
2023/02/11 00:28:30;;;;;;;53.17;31.08;;;;;;;;;;5051754;28;20194;-66
2023/02/11 00:30:57;;;;;;;58.80;31.65;;;;;;;;;;5052542;28;20190;-66
2023/02/11 00:33:24;;;;;;;53.33;29.20;;;;;;;;;;5052220;28;20193;-66
2023/02/11 00:35:52;;;;;;;53.80;29.90;;;;;;;;;;5052388;28;20557;-66
2023/02/11 00:38:20;;;;;;;51.55;29.45;;;;;;;;;;5052035;28;20275;-66
2023/02/11 00:40:47;;;;;;;45.88;28.15;;;;;;;;;;5052058;28;20197;-66
2023/02/11 00:43:15;;;;;;;58.75;30.27;;;;;;;;;;5054699;28;20201;-66
2023/02/11 00:45:42;;;;;;;49.08;29.10;;;;;;;;;;5055885;28;20207;-66
2023/02/11 00:48:09;;;;;;;48.72;28.05;;;;;;;;;;5055148;28;20191;-66
2023/02/11 00:50:36;;;;;;;48.67;29.90;;;;;;;;;;5055217;28;20193;-66
2023/02/11 00:53:03;;;;;;;55.85;27.50;;;;;;;;;;5055178;28;20202;-66
2023/02/11 00:55:32;;;;;;;47.63;27.27;;;;;;;;;;5055124;28;20646;-67
2023/02/11 00:57:59;;;;;;;46.80;25.63;;;;;;;;;;5055776;28;20213;-66
2023/02/11 01:00:26;;;;;;;41.28;24.38;;;;;;;;;;5055464;28;20201;-67
2023/02/11 01:02:54;;;;;;;40.30;22.98;;;;;;;;;;5042771;28;20194;-66
2023/02/11 01:05:21;;;;;;;45.03;27.55;;;;;;;;;;5035150;28;20230;-66
2023/02/11 01:07:48;;;;;;;42.28;28.60;;;;;;;;;;5034896;28;20648;-66
2023/02/11 01:10:16;;;;;;;51.10;27.25;;;;;;;;;;5038297;28;20191;-66
2023/02/11 01:12:44;;;;;;;50.03;29.55;;;;;;;;;;5034763;28;20196;-66
2023/02/11 01:15:12;;;;;;;50.55;26.73;;;;;;;;;;5035038;28;20552;-66
2023/02/11 01:17:39;;;;;;;47.28;28.60;;;;;;;;;;5034985;28;20629;-66
2023/02/11 01:20:08;;;;;;;60.95;29.85;;;;;;;;;;5034721;28;20554;-66
2023/02/11 01:22:38;;;;;;;51.08;26.30;;;;;;;;;;5035114;28;20195;-66
2023/02/11 01:25:05;;;;;;;44.00;28.00;;;;;;;;;;5034795;28;20720;-66
2023/02/11 01:27:33;;;;;;;48.13;28.88;;;;;;;;;;5034615;28;20198;-66
2023/02/11 01:30:01;;;;;;;43.85;27.45;;;;;;;;;;5034536;28;20195;-66
2023/02/11 01:32:29;;;;;;;46.22;23.60;;;;;;;;;;5034337;28;20205;-66
2023/02/11 01:34:56;;;;;;;45.88;26.08;;;;;;;;;;5035148;28;20524;-66
2023/02/11 01:37:23;;;;;;;42.42;26.80;;;;;;;;;;5035096;28;20246;-66
2023/02/11 01:39:51;;;;;;;43.25;26.10;;;;;;;;;;5035033;28;20234;-67
2023/02/11 01:42:18;;;;;;;47.90;27.55;;;;;;;;;;5034218;28;20282;-68
2023/02/11 01:44:45;;;;;;;42.00;27.25;;;;;;;;;;5034551;28;20243;-66
2023/02/11 01:47:14;;;;;;;50.80;27.27;;;;;;;;;;5034295;28;20225;-66
2023/02/11 01:49:43;;;;;;;37.75;25.38;;;;;;;;;;5034395;28;20201;-66
2023/02/11 01:52:13;;;;;;;43.67;25.02;;;;;;;;;;5034755;28;20199;-66
2023/02/11 01:57:29;;;;;;;44.92;26.42;;;;;;;;;;5034266;28;20175;-67
2023/02/11 02:00:00;;;;;;;46.00;24.92;;;;;;;;;;5034180;28;20195;-66
2023/02/11 02:02:31;;;;;;;42.70;24.23;;;;;;;;;;5045295;28;20193;-66
2023/02/11 02:05:01;;;;;;;42.25;24.52;;;;;;;;;;5054284;28;20245;-66
2023/02/11 02:07:33;;;;;;;41.70;27.08;;;;;;;;;;5054227;28;20273;-66
2023/02/11 02:10:04;;;;;;;34.00;20.30;;;;;;;;;;5040536;28;20191;-66
2023/02/11 02:12:31;;;;;;;41.53;27.65;;;;;;;;;;5034096;28;20637;-66
2023/02/11 02:15:17;;;;;;;41.00;24.63;;;;;;;;;;5033990;28;20191;-66
2023/02/11 02:17:49;;;;;;;48.25;24.13;;;;;;;;;;5033530;28;20194;-67
2023/02/11 02:20:40;;;;;;;44.17;25.80;;;;;;;;;;5034513;28;20184;-67
2023/02/11 02:23:19;;;;;;;38.47;22.63;;;;;;;;;;5013738;28;20195;-67
2023/02/11 02:26:04;;;;;;;37.50;24.23;;;;;;;;;;5033901;28;20207;-66
2023/02/11 02:28:40;;;;;;;35.80;23.20;;;;;;;;;;5033210;28;20195;-67
2023/02/11 02:31:14;;;;;;;33.58;22.00;;;;;;;;;;5033644;28;20182;-66
2023/02/11 02:33:46;;;;;;;39.50;23.75;;;;;;;;;;5033944;28;20182;-66
2023/02/11 02:36:17;;;;;;;35.00;22.45;;;;;;;;;;5034035;28;20191;-66
2023/02/11 02:38:47;;;;;;;36.30;22.08;;;;;;;;;;5033970;28;20274;-66
2023/02/11 02:41:16;;;;;;;34.30;21.45;;;;;;;;;;5034489;28;20596;-66
2023/02/11 02:43:45;;;;;;;39.55;22.77;;;;;;;;;;5033754;28;20191;-66
2023/02/11 02:46:13;;;;;;;40.28;19.88;;;;;;;;;;5033545;28;20269;-66
2023/02/11 02:48:41;;;;;;;43.60;23.77;;;;;;;;;;5033075;28;20206;-66
2023/02/11 02:51:16;;;;;;;33.88;22.05;;;;;;;;;;5033198;28;20759;-66
2023/02/11 02:53:47;;;;;;;38.35;20.50;;;;;;;;;;5033948;28;20182;-66
2023/02/11 02:56:16;;;;;;;38.85;23.15;;;;;;;;;;5033357;28;20187;-66
2023/02/11 02:59:04;;;;;;;36.55;22.88;;;;;;;;;;5032925;28;20234;-67
2023/02/11 03:01:35;;;;;;;36.90;22.02;;;;;;;;;;5030325;28;20182;-67
2023/02/11 03:04:07;;;;;;;31.33;20.95;;;;;;;;;;5052728;28;20296;-67
2023/02/11 03:06:39;;;;;;;31.45;20.08;;;;;;;;;;5052902;28;20209;-66
2023/02/11 03:09:09;;;;;;;40.88;22.13;;;;;;;;;;5052044;28;20198;-66
2023/02/11 03:11:37;;;;;;;36.15;21.83;;;;;;;;;;5053075;28;20194;-66
2023/02/11 03:14:08;;;;;;;36.58;21.60;;;;;;;;;;5052879;28;20193;-67
2023/02/11 03:16:37;;;;;;;42.95;21.13;;;;;;;;;;5053173;28;20650;-66
2023/02/11 03:19:06;;;;;;;32.47;21.83;;;;;;;;;;5053499;28;20197;-66
2023/02/11 03:21:34;;;;;;;31.83;21.02;;;;;;;;;;5052567;28;20210;-67
2023/02/11 03:24:04;;;;;;;27.13;19.20;;;;;;;;;;5052649;28;20201;-67
2023/02/11 03:26:35;;;;;;;32.42;20.83;;;;;;;;;;5052461;28;20218;-67
2023/02/11 03:29:05;;;;;;;30.77;20.63;;;;;;;;;;5053528;28;20191;-67
2023/02/11 03:31:34;;;;;;;36.03;21.48;;;;;;;;;;5053175;28;20191;-67
2023/02/11 03:34:05;;;;;;;36.17;21.25;;;;;;;;;;5053245;28;20968;-67
2023/02/11 03:36:36;;;;;;;35.60;20.45;;;;;;;;;;5052599;28;20593;-66
2023/02/11 03:39:05;;;;;;;36.00;19.50;;;;;;;;;;5052588;28;20178;-66
2023/02/11 03:41:33;;;;;;;30.52;21.55;;;;;;;;;;5053325;28;20194;-67
2023/02/11 03:44:02;;;;;;;35.15;20.90;;;;;;;;;;5052216;28;20222;-66
2023/02/11 03:46:31;;;;;;;35.70;21.98;;;;;;;;;;5052670;28;20222;-67
2023/02/11 03:49:01;;;;;;;35.80;22.02;;;;;;;;;;5052434;28;20526;-67
2023/02/11 03:51:30;;;;;;;30.88;19.90;;;;;;;;;;5052284;28;20182;-66
2023/02/11 03:53:59;;;;;;;31.75;19.80;;;;;;;;;;5053073;28;20280;-66
2023/02/11 03:56:30;;;;;;;32.08;20.67;;;;;;;;;;5052148;28;20300;-67
2023/02/11 03:58:57;;;;;;;35.00;21.52;;;;;;;;;;5052371;28;20640;-66
2023/02/11 04:01:24;;;;;;;39.05;22.95;;;;;;;;;;5051322;28;20282;-66
2023/02/11 04:03:51;;;;;;;33.88;21.50;;;;;;;;;;5032899;28;20309;-66
2023/02/11 04:06:19;;;;;;;37.65;20.67;;;;;;;;;;5032358;28;20219;-66
2023/02/11 04:08:46;;;;;;;39.72;22.80;;;;;;;;;;5035501;28;20530;-66
2023/02/11 04:11:13;;;;;;;33.55;20.67;;;;;;;;;;5032537;28;20230;-66
2023/02/11 04:13:41;;;;;;;36.85;21.27;;;;;;;;;;5032246;28;20648;-66
2023/02/11 04:16:09;;;;;;;41.95;23.30;;;;;;;;;;5033643;28;20199;-66
2023/02/11 04:18:36;;;;;;;44.97;22.58;;;;;;;;;;5036640;28;20190;-66
2023/02/11 04:21:03;;;;;;;34.85;22.35;;;;;;;;;;5036094;28;20198;-66
2023/02/11 04:23:30;;;;;;;41.72;22.58;;;;;;;;;;5036197;28;20190;-66
2023/02/11 04:25:57;;;;;;;36.92;19.98;;;;;;;;;;5035905;28;20195;-66
2023/02/11 04:28:25;;;;;;;37.95;22.35;;;;;;;;;;5035738;28;20262;-66
2023/02/11 04:30:54;;;;;;;37.83;23.02;;;;;;;;;;5035732;28;20206;-67
2023/02/11 04:33:21;;;;;;;38.08;22.25;;;;;;;;;;5035830;28;20674;-66
2023/02/11 04:35:48;;;;;;;36.00;20.95;;;;;;;;;;5036160;28;20288;-66
2023/02/11 04:38:15;;;;;;;38.05;21.45;;;;;;;;;;5035967;28;20213;-66
2023/02/11 04:40:42;;;;;;;38.20;23.60;;;;;;;;;;5035891;28;20198;-64
2023/02/11 04:43:09;;;;;;;36.83;22.02;;;;;;;;;;5035978;28;20191;-64
2023/02/11 04:45:37;;;;;;;35.90;22.92;;;;;;;;;;5035478;28;20195;-65
2023/02/11 04:48:05;;;;;;;40.35;22.38;;;;;;;;;;5035447;28;20214;-64
2023/02/11 04:50:33;;;;;;;34.83;21.90;;;;;;;;;;5035559;28;20294;-64
2023/02/11 04:53:00;;;;;;;38.88;23.85;;;;;;;;;;5035889;28;20198;-65
2023/02/11 04:55:27;;;;;;;33.75;21.58;;;;;;;;;;5035262;28;20190;-64
2023/02/11 04:57:54;;;;;;;31.05;22.63;;;;;;;;;;5035379;28;20200;-64
2023/02/11 05:00:21;;;;;;;40.53;23.08;;;;;;;;;;5035273;28;20205;-64
2023/02/11 05:02:49;;;;;;;38.22;22.52;;;;;;;;;;5035527;28;20199;-64
2023/02/11 05:05:17;;;;;;;36.33;23.90;;;;;;;;;;5035525;28;20235;-64
2023/02/11 05:07:44;;;;;;;37.00;23.58;;;;;;;;;;5044705;28;20217;-64
2023/02/11 05:10:11;;;;;;;35.30;19.63;;;;;;;;;;5054867;28;20213;-65
2023/02/11 05:12:39;;;;;;;27.20;17.05;;;;;;;;;;5054790;28;20216;-66
2023/02/11 05:15:06;;;;;;;31.92;21.88;;;;;;;;;;5054365;28;20194;-65
2023/02/11 05:17:34;;;;;;;35.13;20.42;;;;;;;;;;5054786;28;20669;-65
2023/02/11 05:20:01;;;;;;;39.72;23.23;;;;;;;;;;5054615;28;20278;-65
2023/02/11 05:22:29;;;;;;;35.10;22.48;;;;;;;;;;5054587;28;20294;-65
2023/02/11 05:24:56;;;;;;;33.22;20.27;;;;;;;;;;5054456;28;20194;-65
2023/02/11 05:27:24;;;;;;;24.45;15.00;;;;;;;;;;5053747;28;20313;-64
2023/02/11 05:29:51;;;;;;;34.53;22.70;;;;;;;;;;5054579;28;20191;-65
2023/02/11 05:32:18;;;;;;;40.13;19.88;;;;;;;;;;5054073;28;20190;-65
2023/02/11 05:34:45;;;;;;;32.97;20.40;;;;;;;;;;5053888;28;20191;-65
2023/02/11 05:37:12;;;;;;;45.78;22.58;;;;;;;;;;5054183;28;20195;-65
2023/02/11 05:39:41;;;;;;;32.00;21.05;;;;;;;;;;5053924;28;20191;-65
2023/02/11 05:42:08;;;;;;;39.22;20.27;;;;;;;;;;5054310;28;20220;-65
2023/02/11 05:44:35;;;;;;;32.53;21.05;;;;;;;;;;5054463;28;20208;-65
2023/02/11 05:47:02;;;;;;;32.72;22.17;;;;;;;;;;5053443;28;20214;-65
2023/02/11 05:49:30;;;;;;;32.20;21.63;;;;;;;;;;5053859;28;20191;-65
2023/02/11 05:51:57;;;;;;;34.03;21.77;;;;;;;;;;5053536;28;20209;-65
2023/02/11 05:54:24;;;;;;;39.15;22.10;;;;;;;;;;5053701;28;20648;-65
2023/02/11 05:56:53;;;;;;;31.63;21.73;;;;;;;;;;5054180;28;20209;-65
2023/02/11 05:59:20;;;;;;;37.08;24.27;;;;;;;;;;5054439;28;20301;-65
2023/02/11 06:01:47;;;;;;;31.85;22.35;;;;;;;;;;5054210;28;20201;-65
2023/02/11 06:04:14;;;;;;;35.30;22.70;;;;;;;;;;5053867;28;20222;-65
2023/02/11 06:06:42;;;;;;;33.75;21.63;;;;;;;;;;5054885;28;20183;-65
2023/02/11 06:09:09;;;;;;;36.10;23.42;;;;;;;;;;5073154;28;20186;-65
2023/02/11 06:11:36;;;;;;;43.40;24.33;;;;;;;;;;5073335;28;20657;-65
2023/02/11 06:14:05;;;;;;;36.05;22.23;;;;;;;;;;5073553;28;20186;-65
2023/02/11 06:16:32;;;;;;;36.47;24.27;;;;;;;;;;5074179;28;20206;-65
2023/02/11 06:18:59;;;;;;;43.83;26.15;;;;;;;;;;5074308;28;20200;-65
2023/02/11 06:21:27;;;;;;;38.42;22.63;;;;;;;;;;5073750;28;20193;-65
2023/02/11 06:23:54;;;;;;;38.45;24.10;;;;;;;;;;5073954;28;20635;-65
2023/02/11 06:26:22;;;;;;;38.00;23.73;;;;;;;;;;5073272;28;20196;-65
2023/02/11 06:28:49;;;;;;;44.28;22.67;;;;;;;;;;5073071;28;20228;-65
2023/02/11 06:31:18;;;;;;;39.67;25.67;;;;;;;;;;5073222;28;20193;-65
2023/02/11 06:33:45;;;;;;;38.15;26.55;;;;;;;;;;5072862;28;20194;-65
2023/02/11 06:36:15;;;;;;;38.75;25.70;;;;;;;;;;5073806;28;20208;-65
2023/02/11 06:38:42;;;;;;;36.25;24.40;;;;;;;;;;5054919;28;20194;-65
2023/02/11 06:41:10;;;;;;;50.83;25.35;;;;;;;;;;5053728;28;20187;-65
2023/02/11 06:43:37;;;;;;;39.17;25.52;;;;;;;;;;5053117;28;20204;-64
2023/02/11 06:46:04;;;;;;;37.25;25.20;;;;;;;;;;5053033;28;20198;-64
2023/02/11 06:48:33;;;;;;;41.78;25.65;;;;;;;;;;5052998;28;20211;-66
2023/02/11 06:51:02;;;;;;;53.20;25.88;;;;;;;;;;5053167;28;20279;-65
2023/02/11 06:53:29;;;;;;;42.45;25.55;;;;;;;;;;5053008;28;20215;-65
2023/02/11 06:55:56;;;;;;;46.95;28.67;;;;;;;;;;5052817;28;20191;-67
2023/02/11 06:58:23;;;;;;;37.97;24.92;;;;;;;;;;5053166;28;20218;-66
2023/02/11 07:00:51;;;;;;;45.53;25.45;;;;;;;;;;5053299;28;20195;-65
2023/02/11 07:03:18;;;;;;;46.35;27.77;;;;;;;;;;5053346;28;20194;-65
2023/02/11 07:05:46;;;;;;;43.50;28.05;;;;;;;;;;5052943;28;20280;-68
2023/02/11 07:08:14;;;;;;;50.10;26.73;;;;;;;;;;5052907;28;20218;-65
2023/02/11 07:10:42;;;;;;;41.33;26.98;;;;;;;;;;5053229;28;20263;-65
2023/02/11 07:13:09;;;;;;;43.33;26.83;;;;;;;;;;5052966;28;20198;-65
2023/02/11 07:15:37;;;;;;;39.50;25.60;;;;;;;;;;5052621;28;20194;-65
2023/02/11 07:18:04;;;;;;;40.40;24.50;;;;;;;;;;5053059;28;20197;-64
2023/02/11 07:20:31;;;;;;;46.95;26.27;;;;;;;;;;5053112;28;20193;-65
2023/02/11 07:23:00;;;;;;;54.10;26.48;;;;;;;;;;5052617;28;20201;-65
2023/02/11 07:25:27;;;;;;;44.75;28.90;;;;;;;;;;5052716;28;20198;-65
2023/02/11 07:27:54;;;;;;;46.88;26.70;;;;;;;;;;5052280;28;20221;-65
2023/02/11 07:30:22;;;;;;;48.67;28.85;;;;;;;;;;5052590;28;20193;-65
2023/02/11 07:32:49;;;;;;;45.47;26.95;;;;;;;;;;5052506;28;20636;-65
2023/02/11 07:35:16;;;;;;;45.33;26.30;;;;;;;;;;5052649;28;20206;-65
2023/02/11 07:37:43;;;;;;;48.97;28.05;;;;;;;;;;5052139;28;20194;-65
2023/02/11 07:40:12;;;;;;;54.53;29.70;;;;;;;;;;5052415;28;20205;-65
2023/02/11 07:42:40;;;;;;;47.55;28.27;;;;;;;;;;5052289;28;20227;-65
2023/02/11 07:45:08;;;;;;;51.50;29.05;;;;;;;;;;5052624;28;20294;-64
2023/02/11 07:47:35;;;;;;;46.10;28.15;;;;;;;;;;5052525;28;20215;-65
2023/02/11 07:50:03;;;;;;;50.92;26.20;;;;;;;;;;5052566;28;20198;-65
2023/02/11 07:52:30;;;;;;;46.00;24.73;;;;;;;;;;5056067;28;20195;-65
2023/02/11 07:54:57;;;;;;;46.03;27.60;;;;;;;;;;5056100;28;20293;-64
2023/02/11 07:57:26;;;;;;;39.90;21.60;;;;;;;;;;5056192;28;20194;-65
2023/02/11 07:59:53;;;;;;;47.03;31.30;;;;;;;;;;5056447;28;20193;-65
2023/02/11 08:02:20;;;;;;;50.72;28.50;;;;;;;;;;5056282;28;20285;-64
2023/02/11 08:04:48;;;;;;;56.58;30.38;;;;;;;;;;5055885;28;20229;-65
2023/02/11 08:07:15;;;;;;;45.17;25.55;;;;;;;;;;5055972;28;20194;-65
2023/02/11 08:09:43;;;;;;;52.15;25.27;;;;;;;;;;5056268;28;20198;-65
2023/02/11 08:12:10;;;;;;;51.10;29.38;;;;;;;;;;5056542;28;20545;-65
2023/02/11 08:14:39;;;;;;;49.67;26.15;;;;;;;;;;5056220;28;20195;-65
2023/02/11 08:17:06;;;;;;;52.75;29.20;;;;;;;;;;5055906;28;20609;-70
2023/02/11 08:19:33;;;;;;;60.35;27.98;;;;;;;;;;5056098;28;20234;-69
2023/02/11 08:22:01;;;;;;;44.88;27.83;;;;;;;;;;5056029;28;20190;-66
2023/02/11 08:24:28;;;;;;;47.42;26.13;;;;;;;;;;5056128;28;20191;-65
2023/02/11 08:26:55;;;;;;;44.95;28.77;;;;;;;;;;5055734;28;20627;-66
2023/02/11 08:29:22;;;;;;;48.08;27.70;;;;;;;;;;5055785;28;20221;-69
2023/02/11 08:31:51;;;;;;;39.55;22.42;;;;;;;;;;5056408;28;20193;-68
2023/02/11 08:34:18;;;;;;;45.92;26.15;;;;;;;;;;5055998;28;20190;-67
2023/02/11 08:36:47;;;;;;;50.42;29.50;;;;;;;;;;5055675;28;20285;-67
2023/02/11 08:39:15;;;;;;;55.05;29.42;;;;;;;;;;5055842;28;20197;-68
2023/02/11 08:41:42;;;;;;;52.55;28.02;;;;;;;;;;5055721;28;20213;-67
2023/02/11 08:44:09;;;;;;;51.00;28.70;;;;;;;;;;5055675;28;20190;-68
2023/02/11 08:46:37;;;;;;;56.67;29.35;;;;;;;;;;5055282;28;20194;-68
2023/02/11 08:49:05;;;;;;;56.72;28.98;;;;;;;;;;5055365;28;20214;-68
2023/02/11 08:51:33;;;;;;;46.38;28.05;;;;;;;;;;5055709;28;20200;-68
2023/02/11 08:54:00;;;;;;;49.55;27.23;;;;;;;;;;5055141;28;20643;-68
2023/02/11 08:56:30;;;;;;;50.78;29.60;;;;;;;;;;5055559;28;20190;-68
2023/02/11 08:58:57;;;;;;;51.83;25.10;;;;;;;;;;5055249;28;20325;-68
2023/02/11 09:01:25;;;;;;;54.88;28.45;;;;;;;;;;5055371;28;20220;-67
2023/02/11 09:03:52;;;;;;;52.78;27.20;;;;;;;;;;5053577;28;20187;-67
2023/02/11 09:06:21;;;;;;;49.83;26.58;;;;;;;;;;5058497;28;20178;-68
2023/02/11 09:08:49;;;;;;;43.13;25.98;;;;;;;;;;5055564;28;20217;-68
2023/02/11 09:11:17;;;;;;;57.97;29.88;;;;;;;;;;5055080;28;20632;-68
2023/02/11 09:13:44;;;;;;;59.92;29.27;;;;;;;;;;5054677;28;20194;-68
2023/02/11 09:16:17;;;;;;;42.55;26.55;;;;;;;;;;5054801;28;20191;-67
2023/02/11 09:18:44;;;;;;;48.63;24.92;;;;;;;;;;5054863;28;20205;-68
2023/02/11 09:21:12;;;;;;;55.80;27.77;;;;;;;;;;5055048;28;20205;-67
2023/02/11 09:23:42;;;;;;;55.50;29.48;;;;;;;;;;5054969;28;20191;-68
2023/02/11 09:26:10;;;;;;;51.15;28.90;;;;;;;;;;5054915;28;20176;-67
2023/02/11 09:28:37;;;;;;;57.05;28.25;;;;;;;;;;5054685;28;20214;-68
2023/02/11 09:31:05;;;;;;;42.85;26.38;;;;;;;;;;5054905;28;20191;-70
2023/02/11 09:33:33;;;;;;;52.00;29.00;;;;;;;;;;5054894;28;20195;-67
2023/02/11 09:36:01;;;;;;;56.63;28.88;;;;;;;;;;5054887;28;20220;-67
2023/02/11 09:38:29;;;;;;;55.67;26.95;;;;;;;;;;5054880;28;20202;-67
2023/02/11 09:40:57;;;;;;;52.67;28.27;;;;;;;;;;5054232;28;20194;-67
2023/02/11 09:43:27;;;;;;;54.08;29.92;;;;;;;;;;5054355;28;20191;-67
2023/02/11 09:45:55;;;;;;;50.63;27.38;;;;;;;;;;5054408;28;20182;-67
2023/02/11 09:48:23;;;;;;;65.25;31.02;;;;;;;;;;5054798;28;20224;-67
2023/02/11 09:50:52;;;;;;;53.92;30.60;;;;;;;;;;5054364;28;20614;-67
2023/02/11 09:53:21;;;;;;;52.80;31.92;;;;;;;;;;5054733;28;20193;-68
2023/02/11 09:55:54;;;;;;;59.10;30.58;;;;;;;;;;5054518;28;20187;-68
2023/02/11 09:58:25;;;;;;;55.53;30.40;;;;;;;;;;5054637;28;20222;-68
2023/02/11 10:00:55;;;;;;;48.83;29.00;;;;;;;;;;5054006;28;20222;-67
2023/02/11 10:03:32;;;;;;;56.33;29.52;;;;;;;;;;5054184;28;20185;-68
2023/02/11 10:06:14;;;;;;;52.05;30.08;;;;;;;;;;5054675;28;20218;-67
2023/02/11 10:08:44;;;;;;;52.30;30.10;;;;;;;;;;5054390;28;20289;-66
2023/02/11 10:11:16;;;;;;;54.35;28.63;;;;;;;;;;5054023;28;20356;-67
2023/02/11 10:13:54;;;;;;;49.13;31.75;;;;;;;;;;5053567;28;20277;-67
2023/02/11 10:16:30;;;;;;;53.35;30.52;;;;;;;;;;5054173;28;20183;-66
2023/02/11 10:19:07;;;;;;;41.75;23.02;;;;;;;;;;5053633;28;20386;-67
2023/02/11 10:21:45;;;;;;;64.40;28.55;;;;;;;;;;5054037;28;20186;-66
2023/02/11 10:24:14;;;;;;;70.32;31.77;;;;;;;;;;5053576;28;20228;-67
2023/02/11 10:26:42;;;;;;;54.45;28.38;;;;;;;;;;5053325;28;20187;-67
2023/02/11 10:29:16;;;;;;;55.85;31.08;;;;;;;;;;5053398;28;20304;-67
2023/02/11 10:31:44;;;;;;;47.22;27.73;;;;;;;;;;5053824;28;20218;-67
2023/02/11 10:34:12;;;;;;;45.72;25.73;;;;;;;;;;5053508;28;20236;-67
2023/02/11 10:36:42;;;;;;;48.00;27.85;;;;;;;;;;5053482;28;20194;-67
2023/02/11 10:39:13;;;;;;;57.90;30.13;;;;;;;;;;5053493;28;20720;-67
2023/02/11 10:41:42;;;;;;;49.25;29.00;;;;;;;;;;5053242;28;20195;-67
2023/02/11 10:44:15;;;;;;;53.55;29.35;;;;;;;;;;5053934;28;20608;-68
2023/02/11 10:46:42;;;;;;;54.60;31.25;;;;;;;;;;5053389;28;20179;-67
2023/02/11 10:49:09;;;;;;;57.58;27.95;;;;;;;;;;5053419;28;20222;-67
2023/02/11 10:51:37;;;;;;;63.50;33.50;;;;;;;;;;5053016;28;20186;-67
2023/02/11 10:54:13;;;;;;;50.47;27.92;;;;;;;;;;5053077;28;20219;-68
2023/02/11 10:56:41;;;;;;;53.45;31.67;;;;;;;;;;5052897;28;20232;-67
2023/02/11 10:59:15;;;;;;;53.97;28.88;;;;;;;;;;5052880;28;20254;-67
2023/02/11 11:01:45;;;;;;;52.03;30.13;;;;;;;;;;5052938;28;20179;-67
2023/02/11 11:04:36;;;;;;;53.42;30.10;;;;;;;;;;5053052;28;20229;-67
2023/02/11 11:07:12;;;;;;;65.38;31.98;;;;;;;;;;5028782;28;20215;-67
2023/02/11 11:09:44;;;;;;;46.33;25.77;;;;;;;;;;5052680;28;20213;-67
2023/02/11 11:12:24;;;;;;;58.60;28.77;;;;;;;;;;5053291;28;20182;-67
2023/02/11 11:14:55;;;;;;;55.47;30.00;;;;;;;;;;5052821;28;20185;-67
2023/02/11 11:17:27;;;;;;;54.80;30.67;;;;;;;;;;5052939;28;20217;-67
2023/02/11 11:19:55;;;;;;;55.00;29.47;;;;;;;;;;5052915;28;20718;-67
2023/02/11 11:22:22;;;;;;;58.60;30.65;;;;;;;;;;5052942;28;20436;-67
2023/02/11 11:24:53;;;;;;;53.17;29.88;;;;;;;;;;5052384;28;20190;-67
2023/02/11 11:27:22;;;;;;;74.70;32.80;;;;;;;;;;5052405;28;20545;-67
2023/02/11 11:29:50;;;;;;;60.00;31.63;;;;;;;;;;5052933;28;20479;-67
2023/02/11 11:32:21;;;;;;;61.17;33.57;;;;;;;;;;5052593;28;20202;-67
2023/02/11 11:34:52;;;;;;;49.20;27.52;;;;;;;;;;5052903;28;20903;-68
2023/02/11 11:37:21;;;;;;;55.37;29.13;;;;;;;;;;5052818;28;20195;-68
2023/02/11 11:39:56;;;;;;;65.93;31.02;;;;;;;;;;5052818;28;20568;-67
2023/02/11 11:42:26;;;;;;;61.33;32.28;;;;;;;;;;5052370;28;20175;-67
2023/02/11 11:44:57;;;;;;;53.60;32.87;;;;;;;;;;5052539;28;20201;-67
2023/02/11 11:47:35;;;;;;;60.20;31.90;;;;;;;;;;5052649;28;20421;-68
2023/02/11 11:50:18;;;;;;;65.93;33.42;;;;;;;;;;5052283;28;20942;-68
2023/02/11 11:52:50;;;;;;;57.57;31.40;;;;;;;;;;5049472;28;20203;-68
2023/02/11 11:55:19;;;;;;;63.05;32.88;;;;;;;;;;5053069;28;20425;-68
2023/02/11 11:57:46;;;;;;;60.53;32.30;;;;;;;;;;5052158;28;20198;-67
2023/02/11 12:00:18;;;;;;;58.67;31.55;;;;;;;;;;5052440;28;20529;-68
2023/02/11 12:03:12;;;;;;;68.97;31.57;;;;;;;;;;5052497;28;20198;-68
2023/02/11 12:05:43;;;;;;;57.35;30.83;;;;;;;;;;4994647;28;20500;-68
2023/02/11 12:08:15;;;;;;;70.38;34.45;;;;;;;;;;5052338;28;20688;-67
2023/02/11 12:10:55;;;;;;;58.60;32.50;;;;;;;;;;5052567;28;20206;-68
2023/02/11 12:13:27;;;;;;;54.83;31.10;;;;;;;;;;5052630;28;20550;-67
2023/02/11 12:15:57;;;;;;;54.90;31.83;;;;;;;;;;5052275;28;20432;-67
2023/02/11 12:18:37;;;;;;;54.70;29.48;;;;;;;;;;5052383;28;20421;-67
2023/02/11 12:21:13;;;;;;;57.70;28.52;;;;;;;;;;5052894;28;20183;-68
2023/02/11 12:23:49;;;;;;;60.05;31.05;;;;;;;;;;5052144;28;20186;-68
2023/02/11 12:26:18;;;;;;;53.22;32.47;;;;;;;;;;5052297;28;20186;-68
2023/02/11 12:28:53;;;;;;;58.55;33.40;;;;;;;;;;5051825;28;20229;-68
2023/02/11 12:31:27;;;;;;;59.08;33.10;;;;;;;;;;5052534;28;20281;-67
2023/02/11 12:34:00;;;;;;;53.90;32.25;;;;;;;;;;5052617;28;20200;-67
2023/02/11 12:36:33;;;;;;;56.77;32.80;;;;;;;;;;5052331;28;20179;-67
2023/02/11 12:39:10;;;;;;;62.93;32.10;;;;;;;;;;5055713;28;20428;-67
2023/02/11 12:44:35;;;;;;;49.93;30.00;;;;;;;;;;5056052;28;20221;-68
2023/02/11 12:47:09;;;;;;;51.47;32.43;;;;;;;;;;5055394;28;20422;-67
2023/02/11 12:49:48;;;;;;;52.45;32.47;;;;;;;;;;5055428;28;20474;-68
2023/02/11 12:52:25;;;;;;;58.08;30.88;;;;;;;;;;5055802;28;20269;-67
2023/02/11 12:54:57;;;;;;;51.03;29.20;;;;;;;;;;5055813;28;20617;-67
2023/02/11 12:57:26;;;;;;;55.28;33.30;;;;;;;;;;5055627;28;20449;-67
2023/02/11 12:59:57;;;;;;;60.53;32.40;;;;;;;;;;5055927;28;20548;-67
2023/02/11 13:02:28;;;;;;;54.90;30.60;;;;;;;;;;5056295;28;20454;-67
2023/02/11 13:04:57;;;;;;;50.03;30.27;;;;;;;;;;5055520;28;20309;-67
2023/02/11 13:07:29;;;;;;;51.37;29.70;;;;;;;;;;5054920;28;20666;-67
2023/02/11 13:10:00;;;;;;;57.97;30.57;;;;;;;;;;5053472;28;20559;-67
2023/02/11 13:15:16;;;;;;;64.85;30.95;;;;;;;;;;5055244;28;20190;-67
2023/02/11 13:17:48;;;;;;;59.67;31.10;;;;;;;;;;5054836;28;20201;-66
2023/02/11 13:20:22;;;;;;;52.90;31.57;;;;;;;;;;5055029;28;20438;-67
2023/02/11 13:22:56;;;;;;;53.83;33.90;;;;;;;;;;5054709;28;20428;-67
2023/02/11 13:25:29;;;;;;;61.93;32.17;;;;;;;;;;5055112;28;20457;-67
2023/02/11 13:27:58;;;;;;;52.47;31.87;;;;;;;;;;5054851;28;20432;-67
2023/02/11 13:30:29;;;;;;;51.27;30.47;;;;;;;;;;5054741;28;20563;-67
2023/02/11 13:33:04;;;;;;;52.73;30.87;;;;;;;;;;5054794;28;20417;-67
2023/02/11 13:35:32;;;;;;;54.08;31.10;;;;;;;;;;5054813;28;20473;-67
2023/02/11 13:38:00;;;;;;;58.07;33.00;;;;;;;;;;5054093;28;20270;-67
2023/02/11 13:40:36;;;;;;;49.43;31.63;;;;;;;;;;5054645;28;20441;-67
2023/02/11 13:43:04;;;;;;;47.30;29.47;;;;;;;;;;5054778;28;20449;-67
2023/02/11 13:45:34;;;;;;;47.63;30.37;;;;;;;;;;5054497;28;20437;-67
2023/02/11 13:48:03;;;;;;;50.17;29.17;;;;;;;;;;5053842;28;20931;-67
2023/02/11 13:50:33;;;;;;;42.70;29.40;;;;;;;;;;5054257;28;20572;-67
2023/02/11 13:53:01;;;;;;;50.67;27.13;;;;;;;;;;5054029;28;20915;-67
2023/02/11 13:55:31;;;;;;;49.57;28.40;;;;;;;;;;5054164;28;20446;-67
2023/02/11 13:58:17;;;;;;;55.17;30.60;;;;;;;;;;5054132;28;20488;-66
2023/02/11 14:00:46;;;;;;;46.17;29.43;;;;;;;;;;5054300;28;20487;-66
2023/02/11 14:09:07;;;;;;;46.28;27.52;;;;;;;;;;5053816;28;20252;-66
2023/02/11 14:11:46;;;;;;;40.63;24.57;;;;;;;;;;5053776;28;20185;-66
2023/02/11 14:14:18;;;;;;;37.93;23.90;;;;;;;;;;5054050;28;20437;-66
2023/02/11 14:17:03;;;;;;;37.50;25.48;;;;;;;;;;5053587;28;20878;-66
2023/02/11 14:19:34;;;;;;;44.83;27.57;;;;;;;;;;5053762;28;20190;-66
2023/02/11 14:22:03;;;;;;;44.83;27.17;;;;;;;;;;5053379;28;20446;-66
2023/02/11 14:24:47;;;;;;;54.40;27.50;;;;;;;;;;5053347;28;20441;-66
2023/02/11 14:27:20;;;;;;;43.97;26.97;;;;;;;;;;5053990;28;20422;-66
2023/02/11 14:29:51;;;;;;;44.47;26.53;;;;;;;;;;5053206;28;20465;-66
2023/02/11 14:32:24;;;;;;;43.87;27.50;;;;;;;;;;5053230;28;20427;-66
2023/02/11 14:34:54;;;;;;;42.87;22.90;;;;;;;;;;5053263;28;20441;-67
2023/02/11 14:37:25;;;;;;;48.80;28.60;;;;;;;;;;5053284;28;20542;-66
2023/02/11 14:39:57;;;;;;;39.93;25.03;;;;;;;;;;5053377;28;20448;-67
2023/02/11 14:42:27;;;;;;;47.57;23.83;;;;;;;;;;5053710;28;20426;-66
2023/02/11 14:44:55;;;;;;;45.50;25.53;;;;;;;;;;5053055;28;20426;-66